Time;durP1;ratioP1;P1;durP2;ratioP2;P2;SDS_P1;SDS_P2;PMS_P1;PMS_P2;Temp;Humidity;BMP_temperature;BMP_pressure;BME280_temperature;BME280_humidity;BME280_pressure;Samples;Min_cycle;Max_cycle;Signal;HPM_P1;HPM_P2
2021/07/19 00:01:44;;;;;;;5.30;4.90;;;;;;;16.47;100.00;98284.06;4989100;28;20211;-70
2021/07/19 00:04:12;;;;;;;5.47;5.00;;;;;;;16.33;100.00;98285.84;4979291;28;20221;-68
2021/07/19 00:06:41;;;;;;;5.40;5.00;;;;;;;16.30;100.00;98286.25;4981699;28;20207;-70
2021/07/19 00:09:10;;;;;;;6.10;5.60;;;;;;;16.26;100.00;98289.50;4980194;28;20213;-70
2021/07/19 00:11:37;;;;;;;5.67;5.23;;;;;;;16.20;100.00;98283.91;4985338;28;21507;-70
2021/07/19 00:14:05;;;;;;;5.83;5.43;;;;;;;16.20;100.00;98291.06;4982474;28;20228;-70
2021/07/19 00:16:34;;;;;;;5.93;5.53;;;;;;;16.24;100.00;98281.66;4984197;28;20241;-71
2021/07/19 00:19:03;;;;;;;5.70;5.20;;;;;;;16.15;100.00;98286.31;4984530;28;20355;-69
2021/07/19 00:21:31;;;;;;;5.50;5.10;;;;;;;16.15;100.00;98288.16;4983386;28;20202;-70
2021/07/19 00:24:00;;;;;;;5.60;5.20;;;;;;;16.07;100.00;98291.78;4986090;28;20652;-69
2021/07/19 00:26:28;;;;;;;5.03;4.63;;;;;;;16.01;100.00;98287.22;4980068;28;20272;-68
2021/07/19 00:28:56;;;;;;;5.50;5.00;;;;;;;15.96;100.00;98290.47;4981656;28;20205;-68
2021/07/19 00:31:25;;;;;;;5.40;5.00;;;;;;;15.95;100.00;98282.63;4982479;28;20232;-70
2021/07/19 00:33:53;;;;;;;5.30;4.90;;;;;;;15.88;100.00;98288.75;4983056;28;20786;-70
2021/07/19 00:36:21;;;;;;;5.33;4.93;;;;;;;15.86;100.00;98280.06;4981014;28;20201;-70
2021/07/19 00:38:51;;;;;;;6.20;5.57;;;;;;;15.81;100.00;98282.50;4984091;28;20210;-69
2021/07/19 00:41:20;;;;;;;5.33;4.87;;;;;;;15.77;100.00;98281.22;4982294;28;20212;-69
2021/07/19 00:43:48;;;;;;;5.60;5.10;;;;;;;15.85;100.00;98286.44;4982763;28;20238;-71
2021/07/19 00:46:16;;;;;;;5.60;5.20;;;;;;;15.81;100.00;98292.34;4985972;28;20418;-69
2021/07/19 00:48:45;;;;;;;5.83;5.33;;;;;;;15.79;100.00;98289.88;4983438;28;20749;-69
2021/07/19 00:51:13;;;;;;;5.43;5.13;;;;;;;15.98;100.00;98292.94;4982212;28;20202;-70
2021/07/19 00:53:41;;;;;;;5.30;4.77;;;;;;;15.96;100.00;98298.50;4984937;28;20610;-69
2021/07/19 00:56:10;;;;;;;5.30;4.90;;;;;;;15.85;100.00;98298.94;4981879;28;20202;-67
2021/07/19 00:58:41;;;;;;;5.07;4.67;;;;;;;15.75;100.00;98289.41;4986002;28;20202;-69
2021/07/19 01:01:11;;;;;;;5.77;5.37;;;;;;;15.70;100.00;98293.66;4980736;28;20202;-67
2021/07/19 01:03:39;;;;;;;5.63;5.23;;;;;;;15.65;100.00;98293.41;4983844;28;20321;-68
2021/07/19 01:06:08;;;;;;;5.30;4.87;;;;;;;15.64;100.00;98295.28;4985334;28;20722;-70
2021/07/19 01:08:36;;;;;;;4.60;4.30;;;;;;;15.66;100.00;98287.88;4983634;28;20205;-69
2021/07/19 01:11:04;;;;;;;5.60;5.20;;;;;;;15.73;100.00;98286.09;4984102;28;20212;-69
2021/07/19 01:13:33;;;;;;;5.23;4.93;;;;;;;15.71;100.00;98295.31;4985523;28;20248;-68
2021/07/19 01:16:03;;;;;;;6.47;5.57;;;;;;;15.58;100.00;98291.50;4983265;28;20216;-68
2021/07/19 01:18:31;;;;;;;6.30;5.37;;;;;;;15.52;100.00;98297.59;4981994;28;20296;-69
2021/07/19 01:21:25;;;;;;;5.70;5.30;;;;;;;15.43;100.00;98296.06;4985192;28;20494;-68
2021/07/19 01:24:24;;;;;;;5.77;5.37;;;;;;;15.39;100.00;98292.94;4972403;28;20221;-70
2021/07/19 01:27:06;;;;;;;5.90;5.40;;;;;;;15.45;100.00;98288.69;4977445;28;20209;-69
2021/07/19 01:29:36;;;;;;;5.83;5.33;;;;;;;15.40;100.00;98283.91;4980210;28;20209;-68
2021/07/19 01:32:05;;;;;;;5.37;4.97;;;;;;;15.37;100.00;98286.13;4982504;28;20205;-69
2021/07/19 01:34:34;;;;;;;5.43;5.13;;;;;;;15.23;100.00;98293.16;4982413;28;20225;-71
2021/07/19 01:37:04;;;;;;;5.63;5.23;;;;;;;15.18;100.00;98288.38;4983057;28;20225;-70
2021/07/19 01:39:34;;;;;;;6.40;5.90;;;;;;;15.19;100.00;98282.03;4982042;28;20682;-67
2021/07/19 01:42:03;;;;;;;5.63;5.23;;;;;;;15.14;100.00;98284.41;4982420;28;20724;-70
2021/07/19 01:44:32;;;;;;;6.03;5.40;;;;;;;15.11;100.00;98285.59;4982870;28;20232;-68
2021/07/19 01:47:07;;;;;;;6.17;5.67;;;;;;;15.13;100.00;98288.09;4980961;28;20304;-69
2021/07/19 01:49:35;;;;;;;5.50;5.10;;;;;;;15.04;100.00;98287.38;4981520;28;20206;-71
2021/07/19 01:52:04;;;;;;;6.33;5.73;;;;;;;14.93;100.00;98288.66;4982170;28;20209;-69
2021/07/19 01:54:32;;;;;;;6.27;5.67;;;;;;;14.86;100.00;98287.75;4982956;28;20232;-70
2021/07/19 01:57:00;;;;;;;5.40;5.03;;;;;;;14.82;100.00;98287.31;4982918;28;20209;-69
2021/07/19 01:59:29;;;;;;;6.87;6.00;;;;;;;14.77;100.00;98292.34;4979808;28;20292;-69
2021/07/19 02:01:57;;;;;;;6.80;6.13;;;;;;;14.82;100.00;98297.97;4985682;28;20613;-69
2021/07/19 02:04:27;;;;;;;5.63;5.20;;;;;;;14.87;100.00;98295.59;4981671;28;20221;-69
2021/07/19 02:06:55;;;;;;;6.10;5.60;;;;;;;14.95;100.00;98293.81;4976035;28;20213;-69
2021/07/19 02:09:23;;;;;;;5.83;5.40;;;;;;;14.91;100.00;98288.03;4984186;28;20216;-68
2021/07/19 02:11:51;;;;;;;6.63;6.13;;;;;;;14.90;100.00;98292.53;4977767;28;20674;-68
2021/07/19 02:14:20;;;;;;;6.90;6.30;;;;;;;14.95;100.00;98291.97;4978433;28;20230;-68
2021/07/19 02:16:53;;;;;;;6.23;5.73;;;;;;;14.96;100.00;98285.63;4981840;28;20424;-69
2021/07/19 02:19:24;;;;;;;6.00;5.53;;;;;;;14.96;100.00;98284.81;4981769;28;20210;-69
2021/07/19 02:21:53;;;;;;;5.90;5.40;;;;;;;14.87;100.00;98290.25;4978950;28;20218;-68
2021/07/19 02:24:26;;;;;;;5.57;5.07;;;;;;;14.95;100.00;98299.97;4982218;28;20216;-67
2021/07/19 02:26:55;;;;;;;7.10;5.73;;;;;;;14.90;100.00;98297.03;4980507;28;21013;-69
2021/07/19 02:29:23;;;;;;;6.53;5.73;;;;;;;14.93;100.00;98296.66;4979751;28;20716;-68
2021/07/19 02:31:51;;;;;;;6.43;5.83;;;;;;;14.87;100.00;98287.56;4977416;28;20209;-68
2021/07/19 02:34:20;;;;;;;6.23;5.73;;;;;;;14.87;100.00;98292.06;4983385;28;20240;-69
2021/07/19 02:36:48;;;;;;;6.30;5.90;;;;;;;14.80;100.00;98288.50;4977840;28;20470;-67
2021/07/19 02:39:18;;;;;;;5.93;5.43;;;;;;;14.73;100.00;98283.91;4980397;28;20209;-68
2021/07/19 02:41:47;;;;;;;6.43;5.83;;;;;;;14.82;100.00;98283.78;4983126;28;20236;-70
2021/07/19 02:44:15;;;;;;;6.10;5.60;;;;;;;14.74;100.00;98288.22;4979507;28;20247;-67
2021/07/19 02:46:43;;;;;;;6.00;5.50;;;;;;;14.68;100.00;98294.25;4982245;28;20233;-71
2021/07/19 02:49:12;;;;;;;6.13;5.63;;;;;;;14.67;100.00;98294.44;4982862;28;20345;-69
2021/07/19 02:51:40;;;;;;;6.37;5.87;;;;;;;14.73;100.00;98293.72;4982590;28;20225;-71
2021/07/19 02:54:08;;;;;;;6.07;5.63;;;;;;;14.68;100.00;98291.59;4981256;28;20244;-70
2021/07/19 02:56:38;;;;;;;5.63;5.13;;;;;;;14.75;100.00;98294.38;4983621;28;20674;-71
2021/07/19 02:59:06;;;;;;;5.27;4.87;;;;;;;14.77;100.00;98289.69;4979794;28;20221;-70
2021/07/19 03:01:35;;;;;;;6.07;5.57;;;;;;;14.74;100.00;98290.03;4977127;28;20665;-70
2021/07/19 03:04:04;;;;;;;5.60;5.20;;;;;;;14.68;100.00;98293.41;4977585;28;20974;-69
2021/07/19 03:06:35;;;;;;;6.30;5.37;;;;;;;14.70;100.00;98292.25;4979525;28;20206;-69
2021/07/19 03:09:05;;;;;;;6.67;6.17;;;;;;;14.69;100.00;98292.41;4982711;28;20205;-71
2021/07/19 03:11:38;;;;;;;6.50;5.90;;;;;;;14.65;100.00;98283.97;4981409;28;20604;-69
2021/07/19 03:14:09;;;;;;;5.73;5.33;;;;;;;14.72;100.00;98292.91;4981822;28;20642;-71
2021/07/19 03:16:37;;;;;;;5.80;5.30;;;;;;;14.83;100.00;98291.63;4984386;28;20301;-74
2021/07/19 03:19:09;;;;;;;6.73;6.13;;;;;;;14.82;100.00;98294.47;4985144;28;20534;-69
2021/07/19 03:21:39;;;;;;;5.70;5.30;;;;;;;14.81;100.00;98291.00;4982954;28;20217;-73
2021/07/19 03:24:08;;;;;;;6.90;6.30;;;;;;;14.75;100.00;98286.38;4985205;28;20217;-73
2021/07/19 03:26:39;;;;;;;5.90;5.40;;;;;;;14.60;100.00;98281.03;4977978;28;20202;-71
2021/07/19 03:29:09;;;;;;;6.13;5.67;;;;;;;14.75;100.00;98273.88;4979797;28;20213;-71
2021/07/19 03:31:37;;;;;;;5.60;5.20;;;;;;;14.72;100.00;98279.56;4983154;28;20523;-71
2021/07/19 03:34:06;;;;;;;5.70;5.30;;;;;;;14.61;100.00;98277.34;4983206;28;20260;-72
2021/07/19 03:36:34;;;;;;;6.40;5.90;;;;;;;14.59;100.00;98285.50;4978702;28;20203;-73
2021/07/19 03:39:03;;;;;;;6.00;5.50;;;;;;;14.53;100.00;98277.41;4983963;28;20558;-72
2021/07/19 03:41:32;;;;;;;6.27;5.47;;;;;;;14.52;100.00;98284.59;4982473;28;20210;-70
2021/07/19 03:44:02;;;;;;;6.10;5.70;;;;;;;14.46;100.00;98282.66;4984537;28;20629;-72
2021/07/19 03:46:30;;;;;;;6.43;5.90;;;;;;;14.42;100.00;98286.69;4983870;28;20837;-71
2021/07/19 03:48:59;;;;;;;6.57;5.37;;;;;;;14.42;100.00;98298.19;4986777;28;20609;-70
2021/07/19 03:51:29;;;;;;;6.77;6.20;;;;;;;14.40;100.00;98292.19;4983283;28;20205;-75
2021/07/19 03:53:57;;;;;;;7.03;6.53;;;;;;;14.37;100.00;98297.06;4976316;28;20233;-72
2021/07/19 03:56:27;;;;;;;7.10;6.57;;;;;;;14.45;100.00;98294.34;4981261;28;20205;-74
2021/07/19 03:58:56;;;;;;;7.07;6.40;;;;;;;14.45;100.00;98297.00;4980505;28;20810;-73
2021/07/19 04:01:26;;;;;;;6.10;5.60;;;;;;;14.61;100.00;98306.69;4981528;28;20212;-71
2021/07/19 04:04:04;;;;;;;7.13;6.63;;;;;;;14.63;100.00;98299.31;4980063;28;20569;-73
2021/07/19 04:06:32;;;;;;;6.10;5.70;;;;;;;14.74;100.00;98298.03;4987163;28;20594;-71
2021/07/19 04:09:00;;;;;;;7.00;6.23;;;;;;;14.81;100.00;98298.16;4981883;28;20234;-71
2021/07/19 04:11:28;;;;;;;6.63;6.17;;;;;;;14.80;100.00;98304.50;4985136;28;20427;-72
2021/07/19 04:13:56;;;;;;;6.03;5.50;;;;;;;14.85;100.00;98304.78;4981169;28;20240;-69
2021/07/19 04:16:26;;;;;;;6.73;6.13;;;;;;;14.96;100.00;98311.50;4983710;28;20217;-71
2021/07/19 04:18:54;;;;;;;7.10;5.83;;;;;;;14.93;100.00;98304.66;4985299;28;20209;-73
2021/07/19 04:21:22;;;;;;;7.03;6.40;;;;;;;14.99;100.00;98303.97;4983648;28;20213;-72
2021/07/19 04:23:51;;;;;;;6.87;6.17;;;;;;;15.15;100.00;98305.59;4975106;28;20372;-71
2021/07/19 04:26:19;;;;;;;7.30;6.10;;;;;;;15.24;100.00;98300.97;4978283;28;20210;-70
2021/07/19 04:28:47;;;;;;;6.63;6.13;;;;;;;15.26;100.00;98303.47;4982783;28;20225;-71
2021/07/19 04:31:17;;;;;;;6.00;5.57;;;;;;;15.30;100.00;98304.75;4981942;28;20210;-70
2021/07/19 04:33:47;;;;;;;6.80;6.20;;;;;;;15.32;100.00;98311.53;4984194;28;20229;-71
2021/07/19 04:36:17;;;;;;;6.60;6.10;;;;;;;15.36;100.00;98306.66;4981165;28;20213;-72
2021/07/19 04:38:46;;;;;;;6.53;5.90;;;;;;;15.39;100.00;98306.28;4985646;28;20203;-72
2021/07/19 04:41:18;;;;;;;6.63;6.13;;;;;;;15.37;100.00;98312.84;4981944;28;20276;-71
2021/07/19 04:43:46;;;;;;;7.23;6.70;;;;;;;15.58;100.00;98314.72;4984422;28;20470;-72
2021/07/19 04:46:15;;;;;;;7.27;6.67;;;;;;;15.68;100.00;98307.22;4984934;28;20218;-72
2021/07/19 04:48:43;;;;;;;8.43;6.80;;;;;;;15.63;100.00;98313.13;4982667;28;20216;-70
2021/07/19 04:51:12;;;;;;;6.40;5.90;;;;;;;15.77;100.00;98303.41;4977258;28;20484;-69
2021/07/19 04:53:40;;;;;;;6.40;5.63;;;;;;;15.81;100.00;98308.38;4971529;28;20233;-71
2021/07/19 04:56:09;;;;;;;7.63;6.87;;;;;;;15.80;100.00;98310.22;4971970;28;20523;-70
2021/07/19 04:58:38;;;;;;;7.10;6.50;;;;;;;15.89;100.00;98313.63;4973339;28;20209;-70
2021/07/19 05:01:08;;;;;;;6.17;5.70;;;;;;;15.92;100.00;98299.91;4981519;28;20202;-71
2021/07/19 05:03:40;;;;;;;7.13;6.33;;;;;;;16.05;100.00;98305.34;4981841;28;20922;-71
2021/07/19 05:06:08;;;;;;;7.03;6.30;;;;;;;15.94;100.00;98308.56;4982049;28;20206;-72
2021/07/19 05:08:38;;;;;;;7.33;6.80;;;;;;;15.98;100.00;98304.47;4985182;28;20220;-72
2021/07/19 05:11:06;;;;;;;7.83;7.13;;;;;;;16.05;100.00;98304.53;4982693;28;20228;-70
2021/07/19 05:13:36;;;;;;;7.50;6.80;;;;;;;16.03;100.00;98309.22;4981274;28;20230;-71
2021/07/19 05:16:06;;;;;;;6.97;6.43;;;;;;;16.24;100.00;98307.56;4984644;28;20221;-69
2021/07/19 05:18:34;;;;;;;7.33;6.73;;;;;;;16.38;100.00;98295.13;4982662;28;20210;-71
2021/07/19 05:21:03;;;;;;;7.63;6.93;;;;;;;16.59;100.00;98291.59;4980333;28;20572;-71
2021/07/19 05:23:31;;;;;;;8.97;7.47;;;;;;;16.43;100.00;98296.19;4980746;28;20229;-74
2021/07/19 05:26:00;;;;;;;7.60;6.90;;;;;;;16.60;100.00;98295.91;4977704;28;20208;-71
2021/07/19 05:28:28;;;;;;;7.87;7.10;;;;;;;16.64;100.00;98294.50;4982773;28;20245;-70
2021/07/19 05:30:56;;;;;;;7.77;7.03;;;;;;;16.66;100.00;98295.13;4981172;28;20201;-71
2021/07/19 05:33:25;;;;;;;8.13;7.33;;;;;;;16.86;100.00;98292.56;4980324;28;20240;-70
2021/07/19 05:35:53;;;;;;;9.73;7.43;;;;;;;17.21;100.00;98291.72;4985420;28;20232;-69
2021/07/19 05:38:23;;;;;;;8.77;7.87;;;;;;;17.27;100.00;98287.44;4977497;28;20529;-72
2021/07/19 05:40:51;;;;;;;8.40;7.80;;;;;;;17.32;100.00;98288.50;4982925;28;20695;-69
2021/07/19 05:43:20;;;;;;;8.53;6.80;;;;;;;17.36;100.00;98287.06;4981339;28;20237;-71
2021/07/19 05:45:48;;;;;;;8.93;8.07;;;;;;;17.39;100.00;98291.19;4981162;28;20201;-69
2021/07/19 05:48:16;;;;;;;8.80;8.00;;;;;;;17.49;100.00;98288.13;4985742;28;20570;-69
2021/07/19 05:50:44;;;;;;;10.00;9.07;;;;;;;17.57;100.00;98287.94;4984811;28;20210;-70
2021/07/19 05:53:13;;;;;;;8.23;7.73;;;;;;;17.70;100.00;98291.69;4981766;28;20229;-71
2021/07/19 05:55:41;;;;;;;8.37;7.33;;;;;;;17.88;100.00;98293.78;4971854;28;20256;-72
2021/07/19 05:58:09;;;;;;;9.30;8.37;;;;;;;18.17;100.00;98286.41;4983364;28;20209;-71
2021/07/19 06:00:38;;;;;;;9.10;8.27;;;;;;;18.22;100.00;98292.81;4980947;28;20209;-72
2021/07/19 06:03:06;;;;;;;8.67;7.77;;;;;;;18.57;97.70;98290.94;4977895;28;20230;-70
2021/07/19 06:05:36;;;;;;;9.13;8.33;;;;;;;18.75;96.15;98292.97;4973937;28;20226;-70
2021/07/19 06:08:04;;;;;;;8.53;7.67;;;;;;;18.79;96.42;98288.81;4981149;28;20499;-70
2021/07/19 06:10:32;;;;;;;7.80;7.13;;;;;;;18.80;92.96;98288.63;4972614;28;20209;-70
2021/07/19 06:13:00;;;;;;;8.03;7.30;;;;;;;18.87;91.75;98293.16;4972671;28;20202;-71
2021/07/19 06:15:28;;;;;;;8.20;6.80;;;;;;;19.03;90.30;98291.91;4973238;28;20906;-70
2021/07/19 06:17:57;;;;;;;7.60;6.90;;;;;;;19.05;90.07;98295.19;4982582;28;20227;-69
2021/07/19 06:20:28;;;;;;;6.70;6.20;;;;;;;18.90;90.60;98295.41;4978897;28;20675;-73
2021/07/19 06:23:00;;;;;;;13.50;6.93;;;;;;;18.86;90.69;98302.25;4981213;28;20206;-69
2021/07/19 06:25:29;;;;;;;7.93;6.93;;;;;;;19.01;89.76;98294.78;4978967;28;20195;-71
2021/07/19 06:27:58;;;;;;;7.03;6.50;;;;;;;19.12;89.00;98289.78;4978400;28;20582;-69
2021/07/19 06:30:27;;;;;;;6.67;6.17;;;;;;;19.13;88.95;98294.94;4980109;28;20205;-71
2021/07/19 06:32:56;;;;;;;7.37;6.70;;;;;;;19.08;88.98;98292.88;4979939;28;20217;-68
2021/07/19 06:35:25;;;;;;;7.20;6.40;;;;;;;19.08;89.64;98298.25;4979702;28;20233;-71
2021/07/19 06:37:53;;;;;;;7.17;6.57;;;;;;;19.15;88.88;98294.75;4980742;28;20206;-69
2021/07/19 06:40:21;;;;;;;6.80;6.27;;;;;;;19.16;88.15;98297.22;4982466;28;20210;-71
2021/07/19 06:42:49;;;;;;;7.93;6.73;;;;;;;19.35;87.82;98294.66;4980623;28;20220;-70
2021/07/19 06:45:17;;;;;;;7.90;7.20;;;;;;;19.32;86.86;98303.97;4980780;28;20571;-70
2021/07/19 06:47:46;;;;;;;7.97;7.27;;;;;;;19.36;87.22;98297.13;4982577;28;20202;-69
2021/07/19 06:50:15;;;;;;;9.50;6.83;;;;;;;19.57;86.85;98289.81;4981543;28;20335;-71
2021/07/19 06:52:43;;;;;;;7.80;6.60;;;;;;;19.59;86.58;98290.41;4982258;28;20225;-67
2021/07/19 06:55:12;;;;;;;8.50;6.63;;;;;;;19.69;86.44;98286.44;4981812;28;20562;-67
2021/07/19 06:57:40;;;;;;;7.47;6.77;;;;;;;19.79;83.80;98289.47;4980942;28;20745;-71
2021/07/19 07:00:11;;;;;;;8.07;7.47;;;;;;;19.79;82.74;98289.47;4983910;28;20578;-69
2021/07/19 07:02:39;;;;;;;6.73;6.20;;;;;;;19.82;83.06;98283.66;4980949;28;20205;-69
2021/07/19 07:05:09;;;;;;;6.77;6.27;;;;;;;19.91;83.04;98286.94;4982569;28;20201;-69
2021/07/19 07:07:38;;;;;;;6.47;5.73;;;;;;;20.07;82.07;98280.19;4981457;28;20213;-70
2021/07/19 07:10:07;;;;;;;6.57;6.07;;;;;;;20.23;80.00;98270.75;4981335;28;20312;-69
2021/07/19 07:12:38;;;;;;;8.00;6.50;;;;;;;20.27;80.09;98279.19;4984290;28;20206;-72
2021/07/19 07:15:08;;;;;;;7.97;6.40;;;;;;;20.27;79.40;98279.19;4982271;28;20590;-70
2021/07/19 07:17:36;;;;;;;7.30;5.73;;;;;;;20.19;80.51;98277.63;4979699;28;20202;-70
2021/07/19 07:20:04;;;;;;;6.73;6.07;;;;;;;20.23;79.93;98268.06;4981000;28;20215;-71
2021/07/19 07:22:32;;;;;;;7.73;6.93;;;;;;;20.54;79.10;98269.03;4977965;28;20243;-70
2021/07/19 07:25:02;;;;;;;5.60;5.00;;;;;;;20.61;76.87;98274.34;4981245;28;20229;-69
2021/07/19 07:27:29;;;;;;;7.40;6.10;;;;;;;20.58;78.43;98275.63;4982800;28;20205;-70
2021/07/19 07:29:57;;;;;;;7.10;6.50;;;;;;;20.80;76.60;98267.97;4981712;28;20213;-70
2021/07/19 07:32:25;;;;;;;6.20;5.70;;;;;;;20.74;75.84;98273.38;4984450;28;20449;-70
2021/07/19 07:34:53;;;;;;;7.13;6.10;;;;;;;20.78;77.22;98271.88;4982222;28;20221;-71
2021/07/19 07:37:21;;;;;;;5.83;5.33;;;;;;;21.01;75.83;98268.53;4980050;28;20221;-67
2021/07/19 07:39:49;;;;;;;6.13;5.53;;;;;;;21.16;74.60;98276.25;4984519;28;20212;-71
2021/07/19 07:42:19;;;;;;;5.60;5.10;;;;;;;21.25;73.47;98271.38;4981864;28;20214;-73
2021/07/19 07:44:46;;;;;;;5.97;5.37;;;;;;;21.47;70.21;98265.50;4979516;28;20236;-69
2021/07/19 07:47:14;;;;;;;6.33;5.73;;;;;;;21.52;72.04;98263.75;4981965;28;20201;-68
2021/07/19 07:49:42;;;;;;;7.07;5.73;;;;;;;21.68;69.91;98264.22;4980731;28;20924;-70
2021/07/19 07:52:10;;;;;;;5.77;5.30;;;;;;;21.68;70.28;98267.72;4983583;28;20213;-68
2021/07/19 07:54:40;;;;;;;5.20;4.80;;;;;;;21.72;70.52;98273.47;4986118;28;20713;-71
2021/07/19 07:57:08;;;;;;;6.17;5.53;;;;;;;21.82;69.07;98267.53;4981903;28;20221;-71
2021/07/19 07:59:37;;;;;;;5.50;5.00;;;;;;;21.97;67.30;98262.50;4983127;28;20685;-70
2021/07/19 08:02:05;;;;;;;7.67;5.83;;;;;;;22.02;66.83;98253.75;4985364;28;20217;-69
2021/07/19 08:04:36;;;;;;;7.33;5.50;;;;;;;21.88;68.00;98261.22;4981341;28;20316;-71
2021/07/19 08:07:05;;;;;;;5.77;5.37;;;;;;;22.04;68.97;98256.19;4983672;28;20229;-69
2021/07/19 08:09:34;;;;;;;5.47;4.97;;;;;;;22.23;67.59;98256.91;4980858;28;20717;-69
2021/07/19 08:12:02;;;;;;;5.70;5.20;;;;;;;22.34;66.44;98257.97;4986093;28;20209;-72
2021/07/19 08:14:30;;;;;;;6.50;5.43;;;;;;;22.14;68.06;98261.00;4984873;28;20236;-69
2021/07/19 08:17:00;;;;;;;5.60;5.20;;;;;;;22.36;65.50;98254.00;4983906;28;20593;-69
2021/07/19 08:19:32;;;;;;;6.87;5.07;;;;;;;22.37;66.08;98260.22;4984593;28;20682;-72
2021/07/19 08:22:01;;;;;;;6.17;5.10;;;;;;;22.20;67.28;98252.81;4984308;28;20307;-71
2021/07/19 08:24:31;;;;;;;5.87;5.17;;;;;;;22.37;65.89;98252.13;4983491;28;20226;-70
2021/07/19 08:26:59;;;;;;;5.00;4.60;;;;;;;22.21;65.03;98254.47;4981709;28;20341;-69
2021/07/19 08:29:27;;;;;;;5.93;5.10;;;;;;;22.25;67.28;98254.81;4983422;28;20594;-70
2021/07/19 08:31:55;;;;;;;7.27;5.07;;;;;;;22.57;62.78;98246.38;4982647;28;20256;-71
2021/07/19 08:34:25;;;;;;;5.17;4.77;;;;;;;22.57;64.27;98240.97;4981849;28;20225;-69
2021/07/19 08:36:55;;;;;;;6.03;5.47;;;;;;;22.79;64.15;98243.09;4981753;28;20229;-69
2021/07/19 08:39:23;;;;;;;5.37;4.20;;;;;;;23.09;62.83;98248.28;4983737;28;20586;-69
2021/07/19 08:41:51;;;;;;;4.50;4.20;;;;;;;23.18;60.85;98240.63;4980546;28;20599;-71
2021/07/19 08:44:20;;;;;;;5.40;4.90;;;;;;;23.13;60.59;98244.03;4981413;28;20226;-69
2021/07/19 08:46:48;;;;;;;5.33;4.40;;;;;;;23.25;60.55;98237.78;4984494;28;20404;-71
2021/07/19 08:49:16;;;;;;;4.40;4.10;;;;;;;23.43;60.27;98239.47;4984045;28;20686;-70
2021/07/19 08:51:45;;;;;;;5.73;4.30;;;;;;;23.53;61.15;98239.69;4982508;28;20209;-70
2021/07/19 08:54:13;;;;;;;6.23;4.43;;;;;;;23.75;58.77;98236.28;4981751;28;20714;-70
2021/07/19 08:56:42;;;;;;;11.33;4.10;;;;;;;23.80;55.00;98232.84;4982108;28;20630;-70
2021/07/19 08:59:16;;;;;;;4.60;3.70;;;;;;;23.56;56.25;98235.66;4984596;28;20206;-69
2021/07/19 09:01:46;;;;;;;4.47;3.93;;;;;;;23.31;56.06;98239.56;4982880;28;20760;-70
2021/07/19 09:04:18;;;;;;;6.23;3.50;;;;;;;23.26;55.38;98242.13;4987346;28;20563;-70
2021/07/19 09:06:48;;;;;;;6.23;3.93;;;;;;;23.50;54.20;98232.06;4981530;28;20219;-70
2021/07/19 09:09:26;;;;;;;4.10;3.70;;;;;;;23.55;54.67;98240.28;4980215;28;20218;-70
2021/07/19 09:11:55;;;;;;;4.60;4.20;;;;;;;23.35;55.98;98234.47;4983419;28;20198;-68
2021/07/19 09:14:23;;;;;;;4.60;4.20;;;;;;;23.40;55.24;98224.59;4979023;28;20240;-70
2021/07/19 09:16:52;;;;;;;5.50;4.10;;;;;;;23.43;57.58;98228.66;4981219;28;20705;-71
2021/07/19 09:19:21;;;;;;;4.20;3.90;;;;;;;23.73;55.98;98226.78;4981975;28;20202;-70
2021/07/19 09:21:51;;;;;;;4.60;3.57;;;;;;;23.68;55.89;98222.09;4980142;28;20212;-69
2021/07/19 09:24:20;;;;;;;5.00;4.00;;;;;;;23.58;55.49;98227.31;4983364;28;20251;-69
2021/07/19 09:26:51;;;;;;;3.77;3.47;;;;;;;23.64;54.49;98226.34;4978832;28;20197;-70
2021/07/19 09:29:20;;;;;;;4.77;3.90;;;;;;;23.90;53.19;98219.47;4979721;28;20578;-73
2021/07/19 09:31:53;;;;;;;6.77;4.60;;;;;;;24.06;54.39;98211.66;4984066;28;20216;-69
2021/07/19 09:34:26;;;;;;;6.13;4.10;;;;;;;23.77;55.66;98212.50;4977318;28;20226;-71
2021/07/19 09:37:00;;;;;;;6.50;4.73;;;;;;;23.69;56.22;98212.91;4985545;28;20268;-72
2021/07/19 09:39:30;;;;;;;6.63;4.17;;;;;;;23.95;55.31;98211.44;4982068;28;20583;-69
2021/07/19 09:42:08;;;;;;;5.00;4.67;;;;;;;24.03;57.67;98214.81;4980641;28;20240;-72
2021/07/19 09:44:36;;;;;;;5.33;4.23;;;;;;;23.81;57.53;98207.44;4980178;28;20595;-70
2021/07/19 09:47:06;;;;;;;5.47;4.97;;;;;;;23.69;57.93;98218.31;4985189;28;20202;-71
2021/07/19 09:49:35;;;;;;;6.17;4.13;;;;;;;23.64;58.32;98208.22;4982735;28;20681;-71
2021/07/19 09:52:07;;;;;;;5.80;4.20;;;;;;;23.61;58.87;98211.41;4981513;28;20216;-69
2021/07/19 09:54:40;;;;;;;9.87;5.17;;;;;;;24.01;56.30;98203.41;4984991;28;20237;-70
2021/07/19 09:57:08;;;;;;;5.13;4.70;;;;;;;24.22;57.27;98207.25;4981434;28;20241;-69
2021/07/19 09:59:51;;;;;;;5.33;4.83;;;;;;;24.20;57.26;98202.09;4986108;28;20214;-69
2021/07/19 10:02:35;;;;;;;5.80;4.87;;;;;;;24.39;56.15;98189.13;4983931;28;20673;-70
2021/07/19 10:05:06;;;;;;;4.80;4.50;;;;;;;24.63;54.60;98199.72;4979152;28;20225;-70
2021/07/19 10:07:35;;;;;;;5.03;4.63;;;;;;;24.36;54.84;98200.44;4977123;28;20537;-69
2021/07/19 10:10:08;;;;;;;5.50;4.30;;;;;;;24.48;54.43;98192.22;4977941;28;20209;-70
2021/07/19 10:12:36;;;;;;;5.40;4.43;;;;;;;24.80;53.01;98186.13;4982938;28;20228;-70
2021/07/19 10:15:06;;;;;;;5.27;4.50;;;;;;;25.03;51.86;98189.66;4976783;28;20229;-70
2021/07/19 10:17:50;;;;;;;5.30;4.43;;;;;;;25.11;50.88;98188.41;4976482;28;20214;-70
2021/07/19 10:20:18;;;;;;;5.37;4.80;;;;;;;25.33;51.34;98180.22;4977704;28;20614;-71
2021/07/19 10:22:47;;;;;;;4.30;4.00;;;;;;;25.17;50.56;98181.94;4981949;28;20217;-70
2021/07/19 10:25:16;;;;;;;5.20;4.40;;;;;;;25.29;49.31;98185.31;4979193;28;20202;-69
2021/07/19 10:27:45;;;;;;;4.10;3.80;;;;;;;25.08;49.88;98192.41;4970338;28;20201;-70
2021/07/19 10:30:14;;;;;;;5.20;4.07;;;;;;;25.41;48.91;98185.16;4984226;28;20217;-70
2021/07/19 10:32:42;;;;;;;5.83;4.23;;;;;;;25.36;50.31;98179.69;4978118;28;20209;-71
2021/07/19 10:35:12;;;;;;;5.70;4.37;;;;;;;24.98;54.24;98184.97;4984900;28;20205;-71
2021/07/19 10:37:50;;;;;;;7.23;4.30;;;;;;;25.00;50.68;98187.44;4987888;28;20228;-72
2021/07/19 10:40:27;;;;;;;5.97;4.50;;;;;;;24.76;50.39;98187.72;4985905;28;20217;-69
2021/07/19 10:43:05;;;;;;;7.03;4.93;;;;;;;24.41;53.19;98186.97;4978565;28;20214;-69
2021/07/19 10:45:41;;;;;;;5.30;4.33;;;;;;;25.00;50.80;98179.31;4981680;28;20213;-72
2021/07/19 10:48:09;;;;;;;4.43;4.13;;;;;;;25.88;48.66;98173.94;4978499;28;20688;-73
2021/07/19 10:50:39;;;;;;;4.77;4.37;;;;;;;26.07;47.75;98177.84;4978195;28;20548;-68
2021/07/19 10:53:19;;;;;;;5.50;5.00;;;;;;;26.36;48.14;98174.81;4983990;28;20221;-73
2021/07/19 10:55:58;;;;;;;5.37;4.27;;;;;;;26.47;46.28;98175.69;4981059;28;20208;-71
2021/07/19 10:58:36;;;;;;;4.90;4.37;;;;;;;26.35;46.48;98167.75;4983445;28;20244;-69
2021/07/19 11:01:06;;;;;;;5.03;4.63;;;;;;;27.13;45.64;98171.63;4984294;28;20205;-70
2021/07/19 11:03:39;;;;;;;6.03;4.53;;;;;;;27.80;43.70;98164.63;4979190;28;20226;-70
2021/07/19 11:06:07;;;;;;;7.30;4.90;;;;;;;28.13;43.98;98160.50;4980350;28;20524;-74
2021/07/19 11:08:47;;;;;;;5.17;4.70;;;;;;;27.72;45.63;98155.91;4977732;28;20197;-71
2021/07/19 11:11:26;;;;;;;4.43;4.03;;;;;;;27.41;44.59;98155.06;4980087;28;20578;-69
2021/07/19 11:13:57;;;;;;;4.83;4.40;;;;;;;28.36;40.42;98163.72;4974781;28;20730;-71
2021/07/19 11:16:25;;;;;;;4.20;3.73;;;;;;;28.17;40.84;98156.16;4984045;28;20217;-71
2021/07/19 11:18:55;;;;;;;6.53;3.80;;;;;;;28.50;41.58;98149.53;4984202;28;20238;-72
2021/07/19 11:21:24;;;;;;;4.50;4.20;;;;;;;28.47;42.04;98153.63;4982093;28;20579;-73
2021/07/19 11:23:54;;;;;;;8.43;4.63;;;;;;;28.67;40.45;98154.66;4978202;28;20293;-71
2021/07/19 11:26:24;;;;;;;5.07;4.67;;;;;;;27.37;43.75;98149.34;4985931;28;20638;-71
2021/07/19 11:28:55;;;;;;;5.07;4.67;;;;;;;27.08;44.04;98162.63;4986182;28;20205;-70
2021/07/19 11:31:27;;;;;;;6.40;4.50;;;;;;;26.77;43.74;98154.34;4985995;28;20210;-72
2021/07/19 11:33:59;;;;;;;5.60;4.10;;;;;;;27.59;42.12;98135.50;4988134;28;20722;-70
2021/07/19 11:36:29;;;;;;;5.10;4.60;;;;;;;27.58;43.62;98141.22;4984694;28;20690;-71
2021/07/19 11:39:02;;;;;;;4.57;4.10;;;;;;;27.78;41.93;98124.06;4984475;28;20273;-71
2021/07/19 11:41:32;;;;;;;5.30;4.50;;;;;;;27.36;43.96;98123.22;4985418;28;20206;-72